CGH weather

Congonhas Airport
São Paulo, São Paulo, Brazil

Public forecast

Using degrees Celsius for public forecast. Weather courtesy of forecast.io.

METAR (pilot weather report)

Retrieved 2018/09/23 19:00 UTC (32 minutes ago):

SBSP 231900Z 17016KT CAVOK 28/09 Q1016

TAF (pilot weather forecast)

Retrieved 2018/09/23 18:00 UTC (2 hours ago):

TAF SBSP 231500Z 2318/2418 30010KT CAVOK TN18/2409Z TX32/2417Z BECMG 2320/2322 15005KT BECMG 2402/2404 02003KT PROB30 2406/2410 6000 BKN007 BECMG 2413/2415 29004KT RMK PGH